createdAt,value
2018-11-22T00:00:27.295Z,6.13
2018-11-22T00:02:56.002Z,6.27
2018-11-22T00:05:23.353Z,3.90
2018-11-22T00:07:51.625Z,4.57
2018-11-22T00:10:19.509Z,4.10
2018-11-22T00:12:47.236Z,4.37
2018-11-22T00:15:18.125Z,6.57
2018-11-22T00:17:48.487Z,5.00
2018-11-22T00:20:15.901Z,6.03
2018-11-22T00:22:43.417Z,5.63
2018-11-22T00:25:12.061Z,6.37
2018-11-22T00:27:43.924Z,5.03
2018-11-22T00:30:19.237Z,5.80
2018-11-22T00:32:46.612Z,4.60
2018-11-22T00:35:14.873Z,6.50
2018-11-22T00:37:43.604Z,5.60
2018-11-22T00:40:18.504Z,5.20
2018-11-22T00:42:46.470Z,6.47
2018-11-22T00:45:15.478Z,5.07
2018-11-22T00:47:43.063Z,5.57
2018-11-22T00:50:12.226Z,5.47
2018-11-22T00:52:39.960Z,5.97
2018-11-22T00:55:09.118Z,5.47
2018-11-22T00:57:39.870Z,5.30
2018-11-22T01:00:23.888Z,5.23
2018-11-22T01:02:51.469Z,3.93
2018-11-22T01:05:19.956Z,4.77
2018-11-22T01:07:47.321Z,4.07
2018-11-22T01:10:18.895Z,4.60
2018-11-22T01:12:49.271Z,3.77
2018-11-22T01:15:17.048Z,3.17
2018-11-22T01:17:44.744Z,4.50
2018-11-22T01:20:18.571Z,3.53
2018-11-22T01:22:46.478Z,3.73
2018-11-22T01:25:22.914Z,3.27
2018-11-22T01:27:50.745Z,3.23
2018-11-22T01:30:19.263Z,2.60
2018-11-22T01:32:50.474Z,3.70
2018-11-22T01:35:18.845Z,2.60
2018-11-22T01:37:46.129Z,2.67
2018-11-22T01:40:17.398Z,3.33
2018-11-22T01:42:44.712Z,2.73
2018-11-22T01:45:13.535Z,3.40
2018-11-22T01:47:40.929Z,3.03
2018-11-22T01:50:09.781Z,4.43
2018-11-22T01:52:37.346Z,2.77
2018-11-22T01:55:06.073Z,3.47
2018-11-22T01:57:33.407Z,3.57
2018-11-22T02:00:02.795Z,4.73
2018-11-22T02:02:30.455Z,4.20
2018-11-22T02:04:57.899Z,3.90
2018-11-22T02:07:27.664Z,4.33
2018-11-22T02:09:55.000Z,3.90
2018-11-22T02:12:22.369Z,6.53
2018-11-22T02:14:49.760Z,5.17
2018-11-22T02:17:17.034Z,5.80
2018-11-22T02:19:44.550Z,3.83
2018-11-22T02:22:12.110Z,4.87
2018-11-22T02:24:39.575Z,5.80
2018-11-22T02:27:10.079Z,4.70
2018-11-22T02:29:37.935Z,4.40
2018-11-22T02:32:05.733Z,5.00
2018-11-22T02:34:33.276Z,4.37
2018-11-22T02:37:00.654Z,4.73
2018-11-22T02:39:28.220Z,5.17
2018-11-22T02:41:55.700Z,6.20
2018-11-22T02:44:23.165Z,5.40
2018-11-22T02:46:50.618Z,5.27
2018-11-22T02:49:18.272Z,5.03
2018-11-22T02:51:48.540Z,6.43
2018-11-22T02:54:18.203Z,6.37
2018-11-22T02:56:45.552Z,5.80
2018-11-22T02:59:12.868Z,6.37
2018-11-22T03:01:40.331Z,5.03
2018-11-22T03:04:09.660Z,5.73
2018-11-22T03:06:37.008Z,5.23
2018-11-22T03:09:07.278Z,5.27
2018-11-22T03:11:34.709Z,4.23
2018-11-22T03:14:01.956Z,6.57
2018-11-22T03:16:29.262Z,5.03
2018-11-22T03:18:56.970Z,5.37
2018-11-22T03:21:24.451Z,5.83
2018-11-22T03:23:53.876Z,5.40
2018-11-22T03:26:21.305Z,5.03
2018-11-22T03:28:48.815Z,4.63
2018-11-22T03:31:16.251Z,5.10
2018-11-22T03:33:43.576Z,4.23
2018-11-22T03:36:10.879Z,5.73
2018-11-22T03:38:39.659Z,7.07
2018-11-22T03:41:06.971Z,5.43
2018-11-22T03:43:34.502Z,4.43
2018-11-22T03:46:01.933Z,6.00
2018-11-22T03:48:29.381Z,4.70
2018-11-22T03:50:56.846Z,4.30
2018-11-22T03:53:24.211Z,5.47
2018-11-22T03:55:51.522Z,4.83
2018-11-22T03:58:21.022Z,4.97
2018-11-22T04:00:48.335Z,4.60
2018-11-22T04:03:16.202Z,4.37
2018-11-22T04:05:43.955Z,4.07
2018-11-22T04:08:11.412Z,3.83
2018-11-22T04:10:38.897Z,5.30
2018-11-22T04:13:06.283Z,4.10
2018-11-22T04:15:33.811Z,3.80
2018-11-22T04:18:01.213Z,4.07
2018-11-22T04:20:30.187Z,5.00
2018-11-22T04:22:57.753Z,5.07
2018-11-22T04:25:25.393Z,4.83
2018-11-22T04:27:52.855Z,4.77
2018-11-22T04:30:22.273Z,5.07
2018-11-22T04:32:50.179Z,5.90
2018-11-22T04:35:18.376Z,5.37
2018-11-22T04:37:45.812Z,4.97
2018-11-22T04:40:17.079Z,5.33
2018-11-22T04:42:44.685Z,5.27
2018-11-22T04:45:12.571Z,4.80
2018-11-22T04:47:40.190Z,5.00
2018-11-22T04:50:09.277Z,5.93
2018-11-22T04:52:37.353Z,7.70
2018-11-22T04:55:05.580Z,6.20
2018-11-22T04:57:32.998Z,5.23
2018-11-22T05:00:00.473Z,6.03
2018-11-22T05:02:27.780Z,6.00
2018-11-22T05:04:55.332Z,5.17
2018-11-22T05:07:22.760Z,5.00
2018-11-22T05:09:50.179Z,5.10
2018-11-22T05:12:17.656Z,5.03
2018-11-22T05:14:45.061Z,5.47
2018-11-22T05:17:12.514Z,5.57
2018-11-22T05:19:39.954Z,5.80
2018-11-22T05:22:08.048Z,6.87
2018-11-22T05:24:35.612Z,6.17
2018-11-22T05:27:03.638Z,5.83
2018-11-22T05:29:31.316Z,6.43
2018-11-22T05:32:01.432Z,6.80
2018-11-22T05:34:28.982Z,5.90
2018-11-22T05:37:02.541Z,6.97
2018-11-22T05:39:30.084Z,6.70
2018-11-22T05:41:57.495Z,5.97
2018-11-22T05:44:24.951Z,5.77
2018-11-22T05:46:52.452Z,6.60
2018-11-22T05:49:19.918Z,7.73
2018-11-22T05:51:47.243Z,7.03
2018-11-22T05:54:14.597Z,8.43
2018-11-22T05:56:41.884Z,5.77
2018-11-22T05:59:09.502Z,6.80
2018-11-22T06:01:36.856Z,7.97
2018-11-22T06:04:04.224Z,8.00
2018-11-22T06:06:31.597Z,6.33
2018-11-22T06:08:59.023Z,8.10
2018-11-22T06:11:26.361Z,6.67
2018-11-22T06:13:53.770Z,4.97
2018-11-22T06:16:21.417Z,6.53
2018-11-22T06:18:48.947Z,7.10
2018-11-22T06:21:16.394Z,6.07
2018-11-22T06:23:44.450Z,8.60
2018-11-22T06:26:11.223Z,7.73
2018-11-22T06:28:38.680Z,9.20
2018-11-22T06:31:06.464Z,8.17
2018-11-22T06:33:33.443Z,9.57
2018-11-22T06:36:01.089Z,9.57
2018-11-22T06:38:28.624Z,9.43
2018-11-22T06:40:56.236Z,9.23
2018-11-22T06:43:23.819Z,9.17
2018-11-22T06:45:51.204Z,11.43
2018-11-22T06:48:18.588Z,14.23
2018-11-22T06:50:46.217Z,14.40
2018-11-22T06:53:13.769Z,12.37
2018-11-22T06:55:41.355Z,16.37
2018-11-22T06:58:11.414Z,13.20
2018-11-22T07:00:38.920Z,14.43
2018-11-22T07:03:08.103Z,15.57
2018-11-22T07:05:43.236Z,15.20
2018-11-22T07:08:06.242Z,15.60
2018-11-22T07:10:33.658Z,16.07
2018-11-22T07:13:01.487Z,21.87
2018-11-22T07:15:29.105Z,18.87
2018-11-22T07:17:56.529Z,22.53
2018-11-22T07:20:25.221Z,19.77
2018-11-22T07:22:54.203Z,19.80
2018-11-22T07:25:23.019Z,18.90
2018-11-22T07:27:50.718Z,24.03
2018-11-22T07:30:22.252Z,26.50
2018-11-22T07:32:50.102Z,21.83
2018-11-22T07:35:18.859Z,23.03
2018-11-22T07:37:46.588Z,27.13
2018-11-22T07:40:16.485Z,21.73
2018-11-22T07:42:47.127Z,24.70
2018-11-22T07:45:13.900Z,25.70
2018-11-22T07:47:43.613Z,26.67
2018-11-22T07:50:15.176Z,26.10
2018-11-22T07:52:42.448Z,23.03
2018-11-22T07:55:11.118Z,21.17
2018-11-22T07:57:39.508Z,25.03
2018-11-22T08:00:24.602Z,18.37
2018-11-22T08:02:52.123Z,20.57
2018-11-22T08:05:23.276Z,21.47
2018-11-22T08:07:49.836Z,19.87
2018-11-22T08:10:19.902Z,23.83
2018-11-22T08:13:04.925Z,21.37
2018-11-22T08:15:36.628Z,22.40
2018-11-22T08:18:07.098Z,20.60
2018-11-22T08:20:34.445Z,24.67
2018-11-22T08:23:02.946Z,24.40
2018-11-22T08:25:31.397Z,23.33
2018-11-22T08:27:58.701Z,23.63
2018-11-22T08:30:26.306Z,26.77
2018-11-22T08:32:53.899Z,29.77
2018-11-22T08:35:28.356Z,25.87
2018-11-22T08:37:57.919Z,24.20
2018-11-22T08:40:26.993Z,24.63
2018-11-22T08:42:55.224Z,25.13
2018-11-22T08:45:25.514Z,29.43
2018-11-22T08:47:55.652Z,22.60
2018-11-22T08:50:28.684Z,22.93
2018-11-22T08:53:03.021Z,24.20
2018-11-22T08:55:30.904Z,23.00
2018-11-22T08:58:01.251Z,21.17
2018-11-22T09:00:29.749Z,15.43
2018-11-22T09:02:57.722Z,15.87
2018-11-22T09:05:28.973Z,18.87
2018-11-22T09:07:56.645Z,21.97
2018-11-22T09:10:38.390Z,23.90
2018-11-22T09:13:01.960Z,22.57
2018-11-22T09:15:31.439Z,17.27
2018-11-22T09:17:57.884Z,18.00
2018-11-22T09:20:52.460Z,21.70
2018-11-22T09:23:09.517Z,20.40
2018-11-22T09:25:36.823Z,18.10
2018-11-22T09:28:04.343Z,23.50
2018-11-22T09:30:32.832Z,15.70
2018-11-22T09:33:00.378Z,22.23
2018-11-22T09:35:28.893Z,19.83
2018-11-22T09:37:56.311Z,19.83
2018-11-22T09:40:30.217Z,19.27
2018-11-22T09:42:57.591Z,13.30
2018-11-22T09:45:27.007Z,12.73
2018-11-22T09:47:54.663Z,11.33
2018-11-22T09:50:22.894Z,12.30
2018-11-22T09:52:53.775Z,15.30
2018-11-22T09:55:27.279Z,15.27
2018-11-22T09:57:54.912Z,15.93
2018-11-22T10:00:25.899Z,16.90
2018-11-22T10:02:54.629Z,17.13
2018-11-22T10:05:22.447Z,13.53
2018-11-22T10:07:49.797Z,15.37
2018-11-22T10:10:18.522Z,14.33
2018-11-22T10:12:45.888Z,17.47
2018-11-22T10:15:14.819Z,14.37
2018-11-22T10:17:44.643Z,17.77
2018-11-22T10:20:14.102Z,24.40
2018-11-22T10:22:42.773Z,21.93
2018-11-22T10:25:10.618Z,16.20
2018-11-22T10:27:38.839Z,19.70
2018-11-22T12:16:19.533Z,13.27
2018-11-22T12:18:48.071Z,13.00
2018-11-22T12:21:16.659Z,14.60
2018-11-22T12:23:45.697Z,15.77
2018-11-22T12:26:14.908Z,16.33
2018-11-22T12:28:43.508Z,17.90
2018-11-22T12:31:12.300Z,17.90
2018-11-22T12:33:42.901Z,23.00
2018-11-22T12:36:17.309Z,21.90
2018-11-22T12:38:46.404Z,16.23
2018-11-22T12:41:15.590Z,19.80
2018-11-22T12:43:44.679Z,19.67
2018-11-22T12:46:13.671Z,16.87
2018-11-22T12:48:43.064Z,16.30
2018-11-22T12:51:11.118Z,17.73
2018-11-22T12:53:40.474Z,14.77
2018-11-22T12:56:08.754Z,15.87
2018-11-22T12:58:37.174Z,16.73
2018-11-22T13:01:06.844Z,17.40
2018-11-22T13:03:35.228Z,16.33
2018-11-22T13:06:03.629Z,18.33
2018-11-22T13:08:31.629Z,18.73
2018-11-22T13:10:59.822Z,20.07
2018-11-22T13:13:27.975Z,21.93
2018-11-22T13:15:56.036Z,29.70
2018-11-22T13:18:27.381Z,23.90
2018-11-22T13:20:58.443Z,24.07
2018-11-22T13:23:27.910Z,23.40
2018-11-22T13:25:59.849Z,25.40
2018-11-22T13:28:29.429Z,23.97
2018-11-22T13:30:57.723Z,31.83
2018-11-22T13:33:28.776Z,27.60
2018-11-22T13:35:57.472Z,27.60
2018-11-22T13:38:27.602Z,27.80
2018-11-22T13:40:56.812Z,30.20
2018-11-22T13:43:30.392Z,25.47
2018-11-22T13:46:00.430Z,24.63
2018-11-22T13:48:29.174Z,26.03
2018-11-22T13:50:58.735Z,20.77
2018-11-22T13:53:27.885Z,18.43
2018-11-22T13:55:57.246Z,16.30
2018-11-22T13:58:25.508Z,16.07
2018-11-22T14:00:56.818Z,15.83
2018-11-22T14:03:25.749Z,14.93
2018-11-22T14:05:55.352Z,16.57
2018-11-22T14:08:25.863Z,16.33
2018-11-22T14:10:58.432Z,14.30
2018-11-22T14:13:25.072Z,12.10
2018-11-22T14:15:56.361Z,16.70
2018-11-22T14:18:27.039Z,13.13
2018-11-22T14:20:57.791Z,16.07
2018-11-22T14:23:34.190Z,16.80
2018-11-22T14:26:05.748Z,16.10
2018-11-22T14:28:36.464Z,22.17
2018-11-22T14:31:07.554Z,23.50
2018-11-22T14:33:36.541Z,33.33
2018-11-22T14:36:05.697Z,25.57
2018-11-22T14:38:33.631Z,28.60
2018-11-22T14:41:01.711Z,22.53
2018-11-22T14:43:29.603Z,26.87
2018-11-22T14:45:59.063Z,25.57
2018-11-22T14:48:28.732Z,23.07
2018-11-22T14:51:10.122Z,27.67
2018-11-22T14:53:38.340Z,28.47
2018-11-22T14:56:06.448Z,25.37
2018-11-22T14:58:35.077Z,28.90
2018-11-22T15:01:04.037Z,24.97
2018-11-22T15:03:32.384Z,24.03
2018-11-22T15:06:01.374Z,26.90
2018-11-22T15:08:29.557Z,25.20
2018-11-22T15:10:57.862Z,29.80
2018-11-22T15:13:26.402Z,31.20
2018-11-22T15:15:54.991Z,38.20
2018-11-22T15:18:23.127Z,35.90
2018-11-22T15:20:51.319Z,34.13
2018-11-22T15:23:19.488Z,32.10
2018-11-22T15:25:51.411Z,31.83
2018-11-22T15:28:20.360Z,32.10
2018-11-22T15:30:48.410Z,82.83
2018-11-22T15:33:16.526Z,38.43
2018-11-22T15:35:44.592Z,37.87
2018-11-22T15:38:12.707Z,47.20
2018-11-22T15:40:41.404Z,40.17
2018-11-22T15:43:10.197Z,38.47
2018-11-22T15:45:38.202Z,36.87
2018-11-22T15:48:06.320Z,32.67
2018-11-22T15:50:34.262Z,40.77
2018-11-22T15:53:03.140Z,42.40
2018-11-22T15:55:31.254Z,45.50
2018-11-22T15:58:00.091Z,45.33
2018-11-22T16:00:29.444Z,83.93
2018-11-22T16:02:57.928Z,52.83
2018-11-22T16:05:26.648Z,44.30
2018-11-22T16:07:54.912Z,38.63
2018-11-22T16:10:26.906Z,34.10
2018-11-22T16:12:54.622Z,37.40
2018-11-22T16:15:45.953Z,38.70
2018-11-22T16:18:14.100Z,47.77
2018-11-22T16:20:42.902Z,33.50
2018-11-22T16:23:10.891Z,33.47
2018-11-22T16:25:38.987Z,37.07
2018-11-22T16:28:07.083Z,34.43
2018-11-22T16:30:35.280Z,33.13
2018-11-22T16:33:03.524Z,39.10
2018-11-22T16:35:33.547Z,35.23
2018-11-22T16:38:03.366Z,39.97
2018-11-22T16:40:31.416Z,40.30
2018-11-22T16:43:00.913Z,39.07
2018-11-22T16:45:31.055Z,40.27
2018-11-22T16:48:00.584Z,34.83
2018-11-22T16:50:29.710Z,43.67
2018-11-22T16:52:57.727Z,44.60
2018-11-22T16:55:26.664Z,46.13
2018-11-22T16:57:59.964Z,45.03
2018-11-22T17:00:30.098Z,43.97
2018-11-22T17:03:02.015Z,38.73
2018-11-22T17:05:30.232Z,33.77
2018-11-22T17:08:08.831Z,37.27
2018-11-22T17:10:37.366Z,39.47
2018-11-22T17:13:06.591Z,38.07
2018-11-22T17:15:36.013Z,40.03
2018-11-22T17:18:04.478Z,45.20
2018-11-22T17:20:32.933Z,55.03
2018-11-22T17:23:09.453Z,52.43
2018-11-22T17:25:38.598Z,47.67
2018-11-22T17:28:07.556Z,46.00
2018-11-22T17:30:38.092Z,48.87
2018-11-22T17:33:06.276Z,45.03
2018-11-22T17:35:34.544Z,34.33
2018-11-22T17:38:03.768Z,34.83
2018-11-22T17:43:10.849Z,20.37
2018-11-22T17:45:46.991Z,22.90
2018-11-22T17:48:15.295Z,24.67
2018-11-22T17:50:44.578Z,22.80
2018-11-22T17:53:13.103Z,22.93
2018-11-22T17:55:41.297Z,19.63
2018-11-22T17:58:28.400Z,17.40
2018-11-22T18:01:04.924Z,17.93
2018-11-22T18:03:36.057Z,19.73
2018-11-22T18:06:09.651Z,20.27
2018-11-22T18:08:41.123Z,18.87
2018-11-22T18:11:11.193Z,20.90
2018-11-22T18:13:40.153Z,21.23
2018-11-22T18:16:08.290Z,26.70
2018-11-22T18:18:36.442Z,26.17
2018-11-22T18:21:07.109Z,30.30
2018-11-22T18:23:44.471Z,43.43
2018-11-22T18:26:14.946Z,50.80
2018-11-22T18:29:05.986Z,50.97
2018-11-22T18:31:35.578Z,48.40
2018-11-22T18:34:13.631Z,71.90
2018-11-22T18:36:48.671Z,68.47
2018-11-22T18:39:22.171Z,65.83
2018-11-22T18:41:50.104Z,75.27
2018-11-22T18:44:18.187Z,74.03
2018-11-22T18:46:46.192Z,72.90
2018-11-22T18:49:14.247Z,66.07
2018-11-22T18:51:42.435Z,68.47
2018-11-22T18:54:10.528Z,55.77
2018-11-22T18:56:40.082Z,53.57
2018-11-22T18:59:09.069Z,51.03
2018-11-22T19:01:37.185Z,56.90
2018-11-22T19:04:05.342Z,50.23
2018-11-22T19:06:36.922Z,38.20
2018-11-22T19:09:07.447Z,46.00
2018-11-22T19:11:35.490Z,41.67
2018-11-22T19:14:03.451Z,46.57
2018-11-22T19:16:32.390Z,35.07
2018-11-22T19:19:00.587Z,32.60
2018-11-22T19:21:28.647Z,37.20
2018-11-22T19:23:57.015Z,37.50
2018-11-22T19:26:25.346Z,41.33
2018-11-22T19:28:53.711Z,42.67
2018-11-22T19:31:21.931Z,64.23
2018-11-22T19:33:50.097Z,64.63
2018-11-22T19:36:18.263Z,44.93
2018-11-22T19:38:46.566Z,55.47
2018-11-22T19:41:14.619Z,62.57
2018-11-22T19:43:58.683Z,82.73
2018-11-22T19:46:27.007Z,93.37
2018-11-22T19:48:55.266Z,89.90
2018-11-22T19:51:25.284Z,73.43
2018-11-22T19:53:53.352Z,72.20
2018-11-22T19:56:21.374Z,72.33
2018-11-22T19:58:49.290Z,68.70
2018-11-22T20:01:17.452Z,67.37
2018-11-22T20:03:45.463Z,62.60
2018-11-22T20:06:13.939Z,63.30
2018-11-22T20:08:41.829Z,63.80
2018-11-22T20:11:09.806Z,59.93
2018-11-22T20:13:37.749Z,57.00
2018-11-22T20:16:05.863Z,51.70
2018-11-22T20:18:33.782Z,51.47
2018-11-22T20:21:01.787Z,52.27
2018-11-22T20:23:29.787Z,53.87
2018-11-22T20:25:57.804Z,54.17
2018-11-22T20:28:25.714Z,64.63
2018-11-22T20:30:53.722Z,61.10
2018-11-22T20:33:21.923Z,77.07
2018-11-22T20:35:49.883Z,84.40
2018-11-22T20:38:19.114Z,84.57
2018-11-22T20:40:47.201Z,82.37
2018-11-22T20:43:15.213Z,96.43
2018-11-22T20:45:43.277Z,93.00
2018-11-22T20:48:11.729Z,103.87
2018-11-22T20:50:40.308Z,101.53
2018-11-22T20:53:08.272Z,97.20
2018-11-22T20:55:37.981Z,90.47
2018-11-22T20:58:06.812Z,98.73
2018-11-22T21:00:38.376Z,103.17
2018-11-22T21:03:06.427Z,106.87
2018-11-22T21:05:36.143Z,109.03
2018-11-22T21:08:04.381Z,106.83
2018-11-22T21:10:33.099Z,99.30
2018-11-22T21:13:01.055Z,93.10
2018-11-22T21:31:19.046Z,92.10
2018-11-22T21:34:08.179Z,90.73
2018-11-22T21:36:36.183Z,84.07
2018-11-22T21:39:06.010Z,83.57
2018-11-22T21:41:34.726Z,83.93
2018-11-22T21:44:02.644Z,76.83
2018-11-22T21:46:30.695Z,71.93
2018-11-22T21:49:00.155Z,76.97
2018-11-22T21:51:28.150Z,73.93
2018-11-22T21:54:11.919Z,60.60
2018-11-22T21:56:39.908Z,65.87
2018-11-22T21:59:07.816Z,62.67
2018-11-22T22:01:35.787Z,67.43
2018-11-22T22:06:48.500Z,62.23
2018-11-22T22:09:16.530Z,61.03
2018-11-22T22:11:44.513Z,54.93
2018-11-22T22:14:12.567Z,53.07
2018-11-22T22:17:03.959Z,50.03
2018-11-22T22:19:36.071Z,46.03
2018-11-22T22:22:04.095Z,39.77
2018-11-22T22:24:32.239Z,38.17
2018-11-22T22:27:00.347Z,36.23
2018-11-22T22:29:29.003Z,37.93
2018-11-22T22:31:57.540Z,41.13
2018-11-22T22:34:25.875Z,36.07
2018-11-22T22:36:54.015Z,36.80
2018-11-22T22:42:05.829Z,35.23
2018-11-22T22:44:33.941Z,35.87
2018-11-22T22:47:03.748Z,33.40
2018-11-22T22:49:31.640Z,31.83
2018-11-22T22:51:59.622Z,32.80
2018-11-22T22:54:27.603Z,34.57
2018-11-22T22:56:55.496Z,32.60
2018-11-22T23:03:12.983Z,33.03
2018-11-22T23:05:41.137Z,38.03
2018-11-22T23:08:09.100Z,37.83
2018-11-22T23:10:37.205Z,36.97
2018-11-22T23:13:05.679Z,40.33
2018-11-22T23:15:33.689Z,35.83
2018-11-22T23:18:01.912Z,40.37
2018-11-22T23:20:31.388Z,42.43
2018-11-22T23:22:59.280Z,39.93
2018-11-22T23:25:27.789Z,42.43
2018-11-22T23:27:55.790Z,41.53
2018-11-22T23:30:25.200Z,39.60
2018-11-22T23:32:56.368Z,42.50
2018-11-22T23:35:23.563Z,39.60
2018-11-22T23:37:52.045Z,33.57
2018-11-22T23:40:23.023Z,43.70
2018-11-22T23:42:51.057Z,39.63
2018-11-22T23:45:20.903Z,44.00
2018-11-22T23:47:49.143Z,43.03
2018-11-22T23:50:19.206Z,38.50
2018-11-22T23:52:48.239Z,45.80
2018-11-22T23:55:22.778Z,45.27
2018-11-22T23:57:51.861Z,46.67
